createdAt,value
2023-04-13T00:02:18.470Z,94832.34
2023-04-13T00:07:20.062Z,94838.16
2023-04-13T00:12:21.561Z,94836.00
2023-04-13T00:17:23.054Z,94827.44
2023-04-13T00:22:27.589Z,94826.09
2023-04-13T00:27:29.075Z,94813.69
2023-04-13T00:32:34.407Z,94809.91
2023-04-13T00:37:36.026Z,94801.97
2023-04-13T00:42:37.602Z,94799.19
2023-04-13T00:47:40.314Z,94795.88
2023-04-13T00:52:42.298Z,94790.44
2023-04-13T00:57:43.784Z,94795.06
2023-04-13T01:02:45.534Z,94794.25
2023-04-13T01:08:05.850Z,94809.94
2023-04-13T01:13:07.426Z,94792.59
2023-04-13T01:18:13.661Z,94813.69
2023-04-13T01:23:41.154Z,94806.09
2023-04-13T01:28:43.136Z,94807.69
2023-04-13T01:33:45.029Z,94808.00
2023-04-13T01:38:46.860Z,94814.56
2023-04-13T01:43:50.332Z,94816.88
2023-04-13T01:48:56.875Z,94821.38
2023-04-13T01:54:13.235Z,94811.66
2023-04-13T01:59:17.981Z,94815.75
2023-04-13T02:04:19.674Z,94817.44
2023-04-13T02:09:21.347Z,94818.06
2023-04-13T02:14:27.220Z,94820.41
2023-04-13T02:19:28.763Z,94829.97
2023-04-13T02:24:30.222Z,94823.19
2023-04-13T02:29:31.730Z,94830.97
2023-04-13T02:34:33.443Z,94818.47
2023-04-13T02:39:35.240Z,94819.28
2023-04-13T02:44:37.910Z,94822.09
2023-04-13T02:49:40.139Z,94818.09
2023-04-13T02:54:55.135Z,94815.72
2023-04-13T03:00:01.462Z,94820.00
2023-04-13T03:05:14.949Z,94812.06
2023-04-13T03:10:16.549Z,94812.88
2023-04-13T03:15:19.878Z,94815.66
2023-04-13T03:20:21.974Z,94814.84
2023-04-13T03:25:31.181Z,94817.63
2023-04-13T03:30:34.683Z,94823.44
2023-04-13T03:35:37.092Z,94824.56
2023-04-13T03:40:42.279Z,94822.38
2023-04-13T03:45:44.818Z,94813.22
2023-04-13T03:50:49.251Z,94813.91
2023-04-13T03:55:55.730Z,94815.97
2023-04-13T04:00:57.322Z,94810.44
2023-04-13T04:06:13.819Z,94814.03
2023-04-13T04:11:21.669Z,94815.47
2023-04-13T04:16:23.111Z,94817.44
2023-04-13T04:21:30.979Z,94821.41
2023-04-13T04:26:32.502Z,94829.63
2023-04-13T04:31:37.400Z,94837.88
2023-04-13T04:36:43.814Z,94840.72
2023-04-13T04:41:45.304Z,94843.72
2023-04-13T04:46:47.595Z,94851.34
2023-04-13T04:51:49.934Z,94861.53
2023-04-13T04:56:54.012Z,94864.81
2023-04-13T05:01:56.176Z,94866.28
2023-04-13T05:06:57.826Z,94865.44
2023-04-13T05:12:00.719Z,94873.28
2023-04-13T05:17:02.329Z,94878.09
2023-04-13T05:22:08.736Z,94880.44
2023-04-13T05:27:17.116Z,94880.31
2023-04-13T05:32:18.747Z,94889.22
2023-04-13T05:37:22.546Z,94881.81
2023-04-13T05:42:24.212Z,94888.63
2023-04-13T05:47:26.240Z,94896.50
2023-04-13T05:52:32.918Z,94885.19
2023-04-13T05:57:34.552Z,94884.66
2023-04-13T06:02:40.674Z,94888.28
2023-04-13T06:07:45.749Z,94882.78
2023-04-13T06:12:47.205Z,94882.94
2023-04-13T06:17:51.526Z,94895.31
2023-04-13T06:22:53.070Z,94887.38
2023-04-13T06:27:56.796Z,94894.84
2023-04-13T06:32:58.800Z,94888.22
2023-04-13T06:38:02.540Z,94895.75
2023-04-13T06:43:26.434Z,94893.81
2023-04-13T06:48:46.893Z,94893.75
2023-04-13T06:53:50.571Z,94905.19
2023-04-13T06:58:52.858Z,94904.09
2023-04-13T07:03:55.085Z,94901.56
2023-04-13T07:08:58.137Z,94912.16
2023-04-13T07:14:01.240Z,94905.38
2023-04-13T07:19:02.771Z,94900.31
2023-04-13T07:24:05.138Z,94898.19
2023-04-13T07:29:09.426Z,94892.75
2023-04-13T07:34:11.892Z,94891.00
2023-04-13T07:39:19.299Z,94891.47
2023-04-13T07:44:23.327Z,94898.09
2023-04-13T07:49:24.920Z,94902.84
2023-04-13T07:54:27.945Z,94898.63
2023-04-13T07:59:29.616Z,94903.50
2023-04-13T08:04:33.620Z,94895.69
2023-04-13T08:09:40.113Z,94902.69
2023-04-13T08:14:41.782Z,94890.03
2023-04-13T08:19:44.727Z,94893.19
2023-04-13T08:24:48.796Z,94888.41
2023-04-13T08:29:54.769Z,94882.31
2023-04-13T08:34:56.822Z,94892.06
2023-04-13T08:39:58.450Z,94884.63
2023-04-13T08:45:00.886Z,94889.25
2023-04-13T08:50:03.495Z,94891.75
2023-04-13T08:55:21.086Z,94871.59
2023-04-13T09:00:25.086Z,94874.41
2023-04-13T09:05:28.448Z,94872.41
2023-04-13T09:10:34.589Z,94874.25
2023-04-13T09:15:36.087Z,94886.13
2023-04-13T09:20:58.013Z,94894.53
2023-04-13T09:26:09.259Z,94905.47
2023-04-13T09:31:13.133Z,94922.25
2023-04-13T09:36:17.176Z,94916.34
2023-04-13T09:41:33.446Z,94902.53
2023-04-13T09:46:34.970Z,94891.91
2023-04-13T09:51:40.837Z,94888.94
2023-04-13T09:56:47.553Z,94875.88
2023-04-13T10:01:50.236Z,94862.63
2023-04-13T10:06:51.981Z,94866.78
2023-04-13T10:11:55.926Z,94866.94
2023-04-13T10:17:16.287Z,94858.50
2023-04-13T10:22:19.221Z,94849.28
2023-04-13T10:27:22.250Z,94846.38
2023-04-13T10:32:27.151Z,94839.19
2023-04-13T10:37:28.739Z,94846.63
2023-04-13T10:42:50.785Z,94840.22
2023-04-13T10:47:55.005Z,94837.56
2023-04-13T10:52:57.363Z,94829.97
2023-04-13T10:58:00.411Z,94845.63
2023-04-13T11:03:03.231Z,94831.94
2023-04-13T11:08:05.602Z,94824.22
2023-04-13T11:13:07.075Z,94826.13
2023-04-13T11:18:08.628Z,94827.25
2023-04-13T11:23:14.484Z,94825.84
2023-04-13T11:28:15.968Z,94804.41
2023-04-13T11:33:24.349Z,94795.25
2023-04-13T11:38:26.576Z,94807.13
2023-04-13T11:43:28.136Z,94798.81
2023-04-13T11:48:29.698Z,94797.94
2023-04-13T11:53:31.625Z,94793.06
2023-04-13T11:58:33.252Z,94786.41
2023-04-13T12:03:51.778Z,94784.72
2023-04-13T12:09:10.044Z,94777.97
2023-04-13T12:19:28.132Z,94758.97
2023-04-13T12:24:37.875Z,94761.03
2023-04-13T12:29:40.291Z,94754.50
2023-04-13T12:34:42.684Z,94755.88
2023-04-13T12:39:44.209Z,94764.97
2023-04-13T12:44:45.734Z,94764.72
2023-04-13T12:49:47.233Z,94762.13
2023-04-13T12:54:48.692Z,94761.25
2023-04-13T12:59:50.111Z,94764.00
2023-04-13T13:04:51.973Z,94764.16
2023-04-13T13:09:53.512Z,94757.81
2023-04-13T13:14:55.008Z,94753.28
2023-04-13T13:19:56.788Z,94755.63
2023-04-13T13:24:58.294Z,94753.50
2023-04-13T13:29:59.773Z,94769.06
2023-04-13T13:35:01.263Z,94774.13
2023-04-13T13:40:03.031Z,94777.34
2023-04-13T13:45:04.952Z,94786.94
2023-04-13T13:50:07.085Z,94781.84
2023-04-13T13:55:13.894Z,94769.13
2023-04-13T14:00:15.746Z,94767.97
2023-04-13T14:05:17.305Z,94760.78
2023-04-13T14:10:18.864Z,94757.09
2023-04-13T14:15:20.351Z,94750.34
2023-04-13T14:20:21.755Z,94750.16
2023-04-13T14:25:23.642Z,94746.22
2023-04-13T14:30:27.469Z,94743.00
2023-04-13T14:35:29.755Z,94754.00
2023-04-13T14:40:31.275Z,94760.41
2023-04-13T14:45:32.718Z,94765.59
2023-04-13T14:50:38.148Z,94760.91
2023-04-13T14:55:39.679Z,94770.66
2023-04-13T15:00:41.259Z,94768.50
2023-04-13T15:05:44.583Z,94767.00
2023-04-13T15:10:46.134Z,94770.38
2023-04-13T15:15:47.585Z,94775.31
2023-04-13T15:20:49.048Z,94782.31
2023-04-13T15:25:50.468Z,94781.50
2023-04-13T15:30:51.908Z,94785.84
2023-04-13T15:35:53.329Z,94779.22
2023-04-13T15:40:54.834Z,94799.00
2023-04-13T15:45:56.289Z,94800.03
2023-04-13T15:51:01.087Z,94792.97
2023-04-13T15:56:02.588Z,94816.66
2023-04-13T16:01:05.944Z,94842.38
2023-04-13T16:06:07.938Z,94841.66
2023-04-13T16:11:09.435Z,94859.72
2023-04-13T16:16:10.932Z,94871.47
2023-04-13T16:21:12.412Z,94874.88
2023-04-13T16:26:13.835Z,94879.69
2023-04-13T16:31:15.309Z,94896.25
2023-04-13T16:36:16.735Z,94904.25
2023-04-13T16:41:18.162Z,94909.44
2023-04-13T16:46:19.556Z,94909.91
2023-04-13T16:51:21.113Z,94910.78
2023-04-13T16:56:22.728Z,94910.66
2023-04-13T17:01:24.230Z,94903.19
2023-04-13T17:06:25.940Z,94903.19
2023-04-13T17:11:27.499Z,94891.16
2023-04-13T17:16:29.003Z,94888.28
2023-04-13T17:21:30.446Z,94884.69
2023-04-13T17:26:31.867Z,94902.53
2023-04-13T17:31:33.365Z,94912.16
2023-04-13T17:36:34.841Z,94915.38
2023-04-13T17:41:36.366Z,94914.63
2023-04-13T17:46:37.845Z,94921.09
2023-04-13T17:51:39.282Z,94914.47
2023-04-13T17:56:40.860Z,94919.75
2023-04-13T18:01:42.881Z,94925.34
2023-04-13T18:06:44.385Z,94938.72
2023-04-13T18:11:45.814Z,94940.44
2023-04-13T18:16:47.342Z,94943.47
2023-04-13T18:21:48.799Z,94946.63
2023-04-13T18:26:50.293Z,94940.72
2023-04-13T18:31:51.807Z,94952.88
2023-04-13T18:36:53.282Z,94963.25
2023-04-13T18:41:54.750Z,94975.06
2023-04-13T18:46:56.231Z,94982.59
2023-04-13T18:51:57.802Z,94989.53
2023-04-13T18:56:59.300Z,94998.00
2023-04-13T19:02:00.864Z,94998.63
2023-04-13T19:07:02.451Z,94994.22
2023-04-13T19:12:05.460Z,95003.97
2023-04-13T19:17:06.891Z,95004.78
2023-04-13T19:22:08.353Z,95014.06
2023-04-13T19:27:09.797Z,95016.88
2023-04-13T19:32:12.071Z,95016.09
2023-04-13T19:37:13.809Z,95001.50
2023-04-13T19:42:15.368Z,95012.09
2023-04-13T19:47:17.188Z,95008.75
2023-04-13T19:52:18.623Z,95009.13
2023-04-13T19:57:20.068Z,95001.66
2023-04-13T20:02:21.904Z,94999.69
2023-04-13T20:07:23.468Z,94994.75
2023-04-13T20:12:27.592Z,94987.81
2023-04-13T20:17:29.254Z,94996.91
2023-04-13T20:22:30.715Z,94997.09
2023-04-13T20:27:32.138Z,94990.47
2023-04-13T20:32:33.648Z,94998.00
2023-04-13T20:37:35.756Z,94998.31
2023-04-13T20:42:37.374Z,94995.81
2023-04-13T20:47:38.845Z,95001.25
2023-04-13T20:52:40.280Z,95002.06
2023-04-13T20:57:41.680Z,94992.94
2023-04-13T21:02:43.441Z,94986.25
2023-04-13T21:07:45.140Z,94982.50
2023-04-13T21:12:46.594Z,94980.41
2023-04-13T21:17:48.022Z,94984.97
2023-04-13T21:22:49.515Z,94984.97
2023-04-13T21:27:50.976Z,94981.66
2023-04-13T21:32:52.415Z,94986.13
2023-04-13T21:37:53.879Z,94993.44
2023-04-13T21:42:55.365Z,94991.84
2023-04-13T21:47:56.814Z,94986.56
2023-04-13T21:52:58.331Z,94978.66
2023-04-13T21:57:59.781Z,94966.78
2023-04-13T22:03:01.663Z,94959.91
2023-04-13T22:08:03.359Z,94970.28
2023-04-13T22:13:04.854Z,94958.78
2023-04-13T22:18:06.394Z,94961.00
2023-04-13T22:23:07.851Z,94958.72
2023-04-13T22:28:09.502Z,94972.13
2023-04-13T22:33:11.012Z,94983.09
2023-04-13T22:38:12.435Z,94978.06
2023-04-13T22:43:13.912Z,94986.47
2023-04-13T22:48:15.334Z,94980.69
2023-04-13T22:53:16.824Z,94977.78
2023-04-13T22:58:18.448Z,94978.19
2023-04-13T23:03:20.104Z,94984.44
2023-04-13T23:08:21.762Z,94973.06
2023-04-13T23:13:23.237Z,94967.22
2023-04-13T23:18:24.726Z,94963.91
2023-04-13T23:23:26.220Z,94973.19
2023-04-13T23:28:27.696Z,94963.22
2023-04-13T23:33:29.128Z,94974.59
2023-04-13T23:38:31.483Z,94970.00
2023-04-13T23:43:32.992Z,94963.88
2023-04-13T23:48:34.399Z,94958.69
2023-04-13T23:53:35.826Z,94958.69
2023-04-13T23:58:37.240Z,94957.03
